createdAt,value
2022-11-01T00:01:07.835Z,7.02
2022-11-01T00:03:34.641Z,7.06
2022-11-01T00:06:01.315Z,7.10
2022-11-01T00:08:28.230Z,7.12
2022-11-01T00:11:02.825Z,7.19
2022-11-01T00:13:29.591Z,7.15
2022-11-01T00:15:56.430Z,6.97
2022-11-01T00:18:23.392Z,7.07
2022-11-01T00:20:50.229Z,6.97
2022-11-01T00:23:17.070Z,6.82
2022-11-01T00:25:43.783Z,6.64
2022-11-01T00:28:10.531Z,6.63
2022-11-01T00:30:38.811Z,6.57
2022-11-01T00:33:06.120Z,6.64
2022-11-01T00:35:33.228Z,6.71
2022-11-01T00:38:00.872Z,6.69
2022-11-01T00:40:27.850Z,6.57
2022-11-01T00:42:54.670Z,6.49
2022-11-01T00:45:21.459Z,6.45
2022-11-01T00:47:48.370Z,6.36
2022-11-01T00:50:15.455Z,6.44
2022-11-01T00:52:42.132Z,6.38
2022-11-01T00:55:09.319Z,6.27
2022-11-01T00:57:36.080Z,6.37
2022-11-01T01:00:04.410Z,6.42
2022-11-01T01:02:31.199Z,6.43
2022-11-01T01:04:58.021Z,6.42
2022-11-01T01:07:24.760Z,6.28
2022-11-01T01:09:51.458Z,6.35
2022-11-01T01:12:18.180Z,6.46
2022-11-01T01:14:44.823Z,6.44
2022-11-01T01:17:11.631Z,6.35
2022-11-01T01:19:38.328Z,6.39
2022-11-01T01:22:04.991Z,6.29
2022-11-01T01:24:32.400Z,6.32
2022-11-01T01:26:59.660Z,6.30
2022-11-01T01:29:26.298Z,6.29
2022-11-01T01:31:53.050Z,6.32
2022-11-01T01:34:19.821Z,6.33
2022-11-01T01:36:47.111Z,6.27
2022-11-01T01:39:14.173Z,6.30
2022-11-01T01:41:56.393Z,6.33
2022-11-01T01:44:50.129Z,6.20
2022-11-01T01:47:28.808Z,6.22
2022-11-01T01:50:09.590Z,6.23
2022-11-01T01:52:42.938Z,6.24
2022-11-01T01:55:11.470Z,6.21
2022-11-01T01:57:39.908Z,6.19
2022-11-01T02:00:07.772Z,6.09
2022-11-01T02:02:34.567Z,6.11
2022-11-01T02:05:06.670Z,6.13
2022-11-01T02:07:33.389Z,5.97
2022-11-01T02:10:00.129Z,5.99
2022-11-01T02:12:31.814Z,6.08
2022-11-01T02:14:58.490Z,6.01
2022-11-01T02:17:33.911Z,5.96
2022-11-01T02:20:00.529Z,5.85
2022-11-01T02:22:39.032Z,5.87
2022-11-01T02:25:43.191Z,5.88
2022-11-01T02:28:43.856Z,5.89
2022-11-01T02:31:35.671Z,5.68
2022-11-01T02:34:07.008Z,5.69
2022-11-01T02:36:49.281Z,5.59
2022-11-01T02:39:35.311Z,5.56
2022-11-01T02:42:25.074Z,5.53
2022-11-01T02:44:57.975Z,5.43
2022-11-01T02:47:25.549Z,5.34
2022-11-01T02:49:56.184Z,5.42
2022-11-01T02:52:25.668Z,5.44
2022-11-01T02:54:56.452Z,5.28
2022-11-01T02:57:41.620Z,5.29
2022-11-01T03:00:24.340Z,5.18
2022-11-01T03:02:56.630Z,5.05
2022-11-01T03:05:45.129Z,5.10
2022-11-01T03:08:16.698Z,5.02
2022-11-01T03:10:57.231Z,5.11
2022-11-01T03:13:46.172Z,5.20
2022-11-01T03:16:32.470Z,5.15
2022-11-01T03:19:46.890Z,5.11
2022-11-01T03:23:00.313Z,5.23
2022-11-01T03:25:40.706Z,5.32
2022-11-01T03:28:46.792Z,5.20
2022-11-01T03:31:20.283Z,5.31
2022-11-01T03:33:51.010Z,5.29
2022-11-01T03:36:20.484Z,5.27
2022-11-01T03:39:09.026Z,5.30
2022-11-01T03:41:40.709Z,5.23
2022-11-01T03:44:08.130Z,5.01
2022-11-01T03:46:34.888Z,5.14
2022-11-01T03:49:01.729Z,5.05
2022-11-01T03:51:29.297Z,4.86
2022-11-01T03:53:56.095Z,4.90
2022-11-01T03:56:22.890Z,4.95
2022-11-01T03:58:49.711Z,4.86
2022-11-01T04:01:17.593Z,4.90
2022-11-01T04:03:45.141Z,5.00
2022-11-01T04:06:11.958Z,5.08
2022-11-01T04:08:38.912Z,5.16
2022-11-01T04:11:05.759Z,5.20
2022-11-01T04:13:32.462Z,5.16
2022-11-01T04:16:17.939Z,5.17
2022-11-01T04:19:03.522Z,5.19
2022-11-01T04:21:31.552Z,5.16
2022-11-01T04:23:58.232Z,5.23
2022-11-01T04:26:25.032Z,5.02
2022-11-01T04:29:00.757Z,5.12
2022-11-01T04:31:30.170Z,4.91
2022-11-01T04:33:57.932Z,4.73
2022-11-01T04:36:25.455Z,4.86
2022-11-01T04:38:55.650Z,4.69
2022-11-01T04:41:23.850Z,4.58
2022-11-01T04:43:53.152Z,4.76
2022-11-01T04:46:19.890Z,4.70
2022-11-01T04:48:46.732Z,4.77
2022-11-01T04:51:13.709Z,4.77
2022-11-01T04:53:40.420Z,4.74
2022-11-01T04:56:09.149Z,4.83
2022-11-01T04:58:41.451Z,4.77
2022-11-01T05:01:12.105Z,4.73
2022-11-01T05:03:38.940Z,4.65
2022-11-01T05:06:05.791Z,4.69
2022-11-01T05:08:33.155Z,4.75
2022-11-01T05:10:59.961Z,4.62
2022-11-01T05:13:26.728Z,4.65
2022-11-01T05:16:13.881Z,4.55
2022-11-01T05:18:42.507Z,4.48
2022-11-01T05:21:09.091Z,4.47
2022-11-01T05:23:35.650Z,4.50
2022-11-01T05:26:02.250Z,4.48
2022-11-01T05:28:28.856Z,4.47
2022-11-01T05:30:55.450Z,4.55
2022-11-01T05:33:22.148Z,4.48
2022-11-01T05:35:48.803Z,4.38
2022-11-01T05:38:15.359Z,4.38
2022-11-01T05:40:41.977Z,4.49
2022-11-01T05:43:09.059Z,4.45
2022-11-01T05:45:35.600Z,4.56
2022-11-01T05:48:03.605Z,4.60
2022-11-01T05:50:30.502Z,4.61
2022-11-01T05:53:07.846Z,4.40
2022-11-01T05:55:35.198Z,4.39
2022-11-01T05:58:01.812Z,4.51
2022-11-01T06:00:28.485Z,4.42
2022-11-01T06:02:57.820Z,4.31
2022-11-01T06:05:25.070Z,4.20
2022-11-01T06:07:51.721Z,4.22
2022-11-01T06:10:18.450Z,4.23
2022-11-01T06:12:45.085Z,4.02
2022-11-01T06:15:11.885Z,4.18
2022-11-01T06:17:38.540Z,4.42
2022-11-01T06:20:05.737Z,4.49
2022-11-01T06:22:35.889Z,4.62
2022-11-01T06:25:02.520Z,4.65
2022-11-01T06:27:29.147Z,4.71
2022-11-01T06:29:55.779Z,4.53
2022-11-01T06:32:22.464Z,4.51
2022-11-01T06:34:49.109Z,4.53
2022-11-01T06:37:15.817Z,4.44
2022-11-01T06:39:42.413Z,4.58
2022-11-01T06:42:09.372Z,4.74
2022-11-01T06:44:35.971Z,4.80
2022-11-01T06:47:02.551Z,4.70
2022-11-01T06:49:29.551Z,4.56
2022-11-01T06:51:56.379Z,4.70
2022-11-01T06:54:22.982Z,4.74
2022-11-01T06:56:49.814Z,4.75
2022-11-01T06:59:16.930Z,4.81
2022-11-01T07:01:44.378Z,4.86
2022-11-01T07:06:43.012Z,5.09
2022-11-01T07:09:10.375Z,5.36
2022-11-01T07:11:37.051Z,5.52
2022-11-01T07:14:04.496Z,5.84
2022-11-01T07:16:31.996Z,6.19
2022-11-01T07:18:58.656Z,6.76
2022-11-01T07:21:25.312Z,6.94
2022-11-01T07:23:54.083Z,6.82
2022-11-01T07:26:21.286Z,6.74
2022-11-01T07:28:48.190Z,6.64
2022-11-01T07:31:15.117Z,6.57
2022-11-01T07:33:41.838Z,6.66
2022-11-01T07:36:08.785Z,6.67
2022-11-01T07:38:35.559Z,6.40
2022-11-01T07:41:04.493Z,6.33
2022-11-01T07:43:31.367Z,6.38
2022-11-01T07:46:00.995Z,6.73
2022-11-01T07:48:27.922Z,6.82
2022-11-01T07:50:56.598Z,6.76
2022-11-01T07:53:23.667Z,6.73
2022-11-01T07:55:50.401Z,6.77
2022-11-01T07:58:17.573Z,6.86
2022-11-01T08:00:45.006Z,7.15
2022-11-01T08:03:14.144Z,7.36
2022-11-01T08:05:41.939Z,7.24
2022-11-01T08:08:09.214Z,7.74
2022-11-01T08:10:37.012Z,7.77
2022-11-01T08:13:04.415Z,8.15
2022-11-01T08:15:31.586Z,8.35
2022-11-01T08:17:59.073Z,8.25
2022-11-01T08:20:26.354Z,8.29
2022-11-01T08:22:53.794Z,8.53
2022-11-01T08:25:20.622Z,8.37
2022-11-01T08:27:47.437Z,8.63
2022-11-01T08:30:15.172Z,9.16
2022-11-01T08:32:42.084Z,9.33
2022-11-01T08:35:09.241Z,9.77
2022-11-01T08:37:36.068Z,10.06
2022-11-01T08:40:03.458Z,10.00
2022-11-01T08:42:30.260Z,9.87
2022-11-01T08:44:56.932Z,10.41
2022-11-01T08:47:23.715Z,9.97
2022-11-01T08:49:50.402Z,10.23
2022-11-01T08:52:17.165Z,10.20
2022-11-01T08:54:43.875Z,10.13
2022-11-01T08:57:10.640Z,10.39
2022-11-01T08:59:37.376Z,10.31
2022-11-01T09:02:04.271Z,10.92
2022-11-01T09:04:31.159Z,11.05
2022-11-01T09:06:57.919Z,12.17
2022-11-01T09:09:24.609Z,12.38
2022-11-01T09:11:51.402Z,12.27
2022-11-01T09:14:18.169Z,11.65
2022-11-01T09:16:45.541Z,11.95
2022-11-01T09:19:12.220Z,12.22
2022-11-01T09:21:38.980Z,12.22
2022-11-01T09:24:06.035Z,12.52
2022-11-01T09:26:32.760Z,12.47
2022-11-01T09:29:00.179Z,12.23
2022-11-01T09:31:26.967Z,12.64
2022-11-01T09:33:58.262Z,13.26
2022-11-01T09:36:25.637Z,12.69
2022-11-01T09:38:52.411Z,12.97
2022-11-01T09:41:35.964Z,13.11
2022-11-01T09:44:05.504Z,12.98
2022-11-01T09:46:38.019Z,12.40
2022-11-01T09:49:06.846Z,12.80
2022-11-01T09:51:33.775Z,12.76
2022-11-01T09:54:04.474Z,12.39
2022-11-01T09:56:58.610Z,12.12
2022-11-01T09:59:34.210Z,12.02
2022-11-01T10:02:19.497Z,12.15
2022-11-01T10:05:08.099Z,12.57
2022-11-01T10:07:47.379Z,12.24
2022-11-01T10:10:24.604Z,12.27
2022-11-01T10:12:54.329Z,12.26
2022-11-01T10:15:59.267Z,12.38
2022-11-01T10:18:28.797Z,12.21
2022-11-01T10:20:56.839Z,12.33
2022-11-01T10:23:38.729Z,12.98
2022-11-01T10:26:06.997Z,12.74
2022-11-01T10:28:56.712Z,13.21
2022-11-01T10:31:24.814Z,13.14
2022-11-01T10:34:00.131Z,13.49
2022-11-01T10:36:33.995Z,13.95
2022-11-01T10:42:16.752Z,14.44
2022-11-01T10:44:46.787Z,14.93
2022-11-01T10:47:19.518Z,15.57
2022-11-01T10:50:05.459Z,15.35
2022-11-01T10:52:41.618Z,15.71
2022-11-01T10:55:16.141Z,16.02
2022-11-01T10:57:45.848Z,16.11
2022-11-01T11:00:18.409Z,16.35
2022-11-01T11:03:07.928Z,15.93
2022-11-01T11:05:34.811Z,15.93
2022-11-01T11:08:05.297Z,15.69
2022-11-01T11:10:32.458Z,15.59
2022-11-01T11:13:06.751Z,15.47
2022-11-01T11:15:48.290Z,15.38
2022-11-01T11:18:21.635Z,15.64
2022-11-01T11:21:00.448Z,15.96
2022-11-01T11:23:34.049Z,15.31
2022-11-01T11:26:19.820Z,15.26
2022-11-01T11:28:52.196Z,15.43
2022-11-01T11:31:25.394Z,15.43
2022-11-01T11:33:54.780Z,15.45
2022-11-01T11:36:32.949Z,15.24
2022-11-01T11:39:00.289Z,15.15
2022-11-01T11:41:36.697Z,15.23
2022-11-01T11:44:03.658Z,15.56
2022-11-01T11:46:30.486Z,15.49
2022-11-01T11:49:01.212Z,15.31
2022-11-01T11:51:30.192Z,15.09
2022-11-01T11:54:31.839Z,14.88
2022-11-01T11:57:30.140Z,15.28
2022-11-01T12:00:01.108Z,16.09
2022-11-01T12:02:36.476Z,16.78
2022-11-01T12:05:08.799Z,16.87
2022-11-01T12:07:44.059Z,16.95
2022-11-01T12:10:31.805Z,16.71
2022-11-01T12:12:58.836Z,16.61
2022-11-01T12:15:38.417Z,16.71
2022-11-01T12:18:16.251Z,16.78
2022-11-01T12:20:48.780Z,17.27
2022-11-01T12:23:35.207Z,17.50
2022-11-01T12:26:04.743Z,16.86
2022-11-01T12:28:35.488Z,16.72
2022-11-01T12:31:12.018Z,16.66
2022-11-01T12:33:43.606Z,16.62
2022-11-01T12:36:10.799Z,16.45
2022-11-01T12:38:47.329Z,16.48
2022-11-01T12:41:26.459Z,16.61
2022-11-01T12:44:00.279Z,16.73
2022-11-01T12:46:38.755Z,16.67
2022-11-01T12:49:37.389Z,16.64
2022-11-01T12:52:15.300Z,16.69
2022-11-01T12:54:47.150Z,16.54
2022-11-01T12:57:18.390Z,16.58
2022-11-01T12:59:46.945Z,16.24
2022-11-01T13:02:40.180Z,16.20
2022-11-01T13:05:20.577Z,16.06
2022-11-01T13:08:21.229Z,15.93
2022-11-01T13:10:48.388Z,15.76
2022-11-01T13:13:28.129Z,15.68
2022-11-01T13:16:13.266Z,15.54
2022-11-01T13:18:46.969Z,15.45
2022-11-01T13:21:49.555Z,15.50
2022-11-01T13:24:41.187Z,15.47
2022-11-01T13:27:15.406Z,15.44
2022-11-01T13:29:48.916Z,15.52
2022-11-01T13:32:53.237Z,15.64
2022-11-01T13:35:40.397Z,15.69
2022-11-01T13:38:33.527Z,15.69
2022-11-01T13:41:29.602Z,15.70
2022-11-01T13:44:19.615Z,15.67
2022-11-01T13:47:08.327Z,15.92
2022-11-01T13:49:41.347Z,16.06
2022-11-01T13:52:19.687Z,16.19
2022-11-01T13:54:59.878Z,16.39
2022-11-01T13:57:27.240Z,16.50
2022-11-01T14:00:08.602Z,16.66
2022-11-01T14:02:55.859Z,16.69
2022-11-01T14:05:22.719Z,16.50
2022-11-01T14:07:50.687Z,16.59
2022-11-01T14:10:17.318Z,16.74
2022-11-01T14:12:48.340Z,16.50
2022-11-01T14:15:25.440Z,16.43
2022-11-01T14:17:55.999Z,16.35
2022-11-01T14:20:25.857Z,16.13
2022-11-01T14:22:53.514Z,16.16
2022-11-01T14:28:17.607Z,15.92
2022-11-01T14:30:50.789Z,15.76
2022-11-01T14:33:20.097Z,15.49
2022-11-01T14:35:52.457Z,15.45
2022-11-01T14:38:23.669Z,15.41
2022-11-01T14:40:55.987Z,15.34
2022-11-01T14:43:32.847Z,15.24
2022-11-01T14:46:20.587Z,15.09
2022-11-01T14:49:15.727Z,15.09
2022-11-01T14:52:09.698Z,15.07
2022-11-01T14:54:56.591Z,14.92
2022-11-01T14:57:28.487Z,14.87
2022-11-01T14:59:55.959Z,14.90
2022-11-01T15:02:25.527Z,14.82
2022-11-01T15:04:59.090Z,14.76
2022-11-01T15:07:30.875Z,14.46
2022-11-01T15:10:05.506Z,14.24
2022-11-01T15:12:35.971Z,14.21
2022-11-01T15:15:03.145Z,14.24
2022-11-01T15:17:33.288Z,14.16
2022-11-01T15:20:02.087Z,14.16
2022-11-01T15:22:31.765Z,14.04
2022-11-01T15:25:04.436Z,14.07
2022-11-01T15:27:51.424Z,13.91
2022-11-01T15:30:27.560Z,13.77
2022-11-01T15:33:17.131Z,13.74
2022-11-01T15:35:43.919Z,13.72
2022-11-01T15:38:30.680Z,13.64
2022-11-01T15:40:57.407Z,13.56
2022-11-01T15:43:27.448Z,13.49
2022-11-01T15:45:57.089Z,13.57
2022-11-01T15:48:28.487Z,13.50
2022-11-01T15:51:07.127Z,13.35
2022-11-01T15:53:35.797Z,13.37
2022-11-01T15:56:15.957Z,13.21
2022-11-01T15:58:47.129Z,13.15
2022-11-01T16:01:17.674Z,13.07
2022-11-01T16:04:01.622Z,13.06
2022-11-01T16:06:40.527Z,12.90
2022-11-01T16:09:55.455Z,12.92
2022-11-01T16:12:32.808Z,12.89
2022-11-01T16:15:02.286Z,12.82
2022-11-01T16:17:39.674Z,12.84
2022-11-01T16:20:26.405Z,12.73
2022-11-01T16:22:53.668Z,12.75
2022-11-01T16:25:22.378Z,12.64
2022-11-01T16:28:07.410Z,12.72
2022-11-01T16:30:36.659Z,12.64
2022-11-01T16:33:48.158Z,12.64
2022-11-01T16:36:21.141Z,12.72
2022-11-01T16:38:54.037Z,12.67
2022-11-01T16:41:24.629Z,12.63
2022-11-01T16:43:56.280Z,12.70
2022-11-01T16:46:25.143Z,12.60
2022-11-01T16:48:57.508Z,12.62
2022-11-01T16:51:28.546Z,12.55
2022-11-01T16:53:57.298Z,12.45
2022-11-01T16:56:37.460Z,12.49
2022-11-01T16:59:07.938Z,12.40
2022-11-01T17:01:35.936Z,12.35
2022-11-01T17:04:03.751Z,12.45
2022-11-01T17:06:33.505Z,12.46
2022-11-01T17:09:04.548Z,12.33
2022-11-01T17:11:31.235Z,12.35
2022-11-01T17:13:58.007Z,12.31
2022-11-01T17:16:25.801Z,12.30
2022-11-01T17:18:55.228Z,12.22
2022-11-01T17:21:22.787Z,12.13
2022-11-01T17:23:51.308Z,12.09
2022-11-01T17:26:19.410Z,12.08
2022-11-01T17:28:49.650Z,12.02
2022-11-01T17:31:19.037Z,12.01
2022-11-01T17:33:45.797Z,11.89
2022-11-01T17:36:17.082Z,11.95
2022-11-01T17:38:44.998Z,12.06
2022-11-01T17:41:16.725Z,12.08
2022-11-01T17:43:43.660Z,12.02
2022-11-01T17:46:15.347Z,11.89
2022-11-01T17:48:42.180Z,11.90
2022-11-01T17:51:09.219Z,11.89
2022-11-01T17:53:39.301Z,11.92
2022-11-01T17:56:06.798Z,11.87
2022-11-01T17:58:33.679Z,11.82
2022-11-01T18:01:00.828Z,11.79
2022-11-01T18:03:27.980Z,11.68
2022-11-01T18:05:59.425Z,11.74
2022-11-01T18:08:27.177Z,11.72
2022-11-01T18:11:02.569Z,11.78
2022-11-01T18:13:34.917Z,11.79
2022-11-01T18:16:14.494Z,11.79
2022-11-01T18:18:53.834Z,11.79
2022-11-01T18:21:32.714Z,11.63
2022-11-01T18:24:04.037Z,11.59
2022-11-01T18:26:30.919Z,11.64
2022-11-01T18:29:00.916Z,11.67
2022-11-01T18:31:56.765Z,11.68
2022-11-01T18:34:38.717Z,11.68
2022-11-01T18:37:22.019Z,11.66
2022-11-01T18:40:11.619Z,11.66
2022-11-01T18:42:38.516Z,11.57
2022-11-01T18:45:25.597Z,11.50
2022-11-01T18:48:00.687Z,11.57
2022-11-01T18:50:28.455Z,11.60
2022-11-01T18:53:15.900Z,11.57
2022-11-01T18:55:44.643Z,11.53
2022-11-01T18:58:15.907Z,11.45
2022-11-01T19:00:43.156Z,11.48
2022-11-01T19:03:12.435Z,11.48
2022-11-01T19:05:39.717Z,11.47
2022-11-01T19:08:23.742Z,11.30
2022-11-01T19:10:51.520Z,11.39
2022-11-01T19:13:23.796Z,11.39
2022-11-01T19:15:54.172Z,11.35
2022-11-01T19:18:22.896Z,11.36
2022-11-01T19:20:54.638Z,11.39
2022-11-01T19:23:38.117Z,11.36
2022-11-01T19:26:17.704Z,11.32
2022-11-01T19:28:44.308Z,11.29
2022-11-01T19:31:31.767Z,11.27
2022-11-01T19:34:06.872Z,11.28
2022-11-01T19:36:41.315Z,11.33
2022-11-01T19:39:29.819Z,11.38
2022-11-01T19:42:12.387Z,11.39
2022-11-01T19:44:38.948Z,11.30
2022-11-01T19:47:32.765Z,11.25
2022-11-01T19:49:59.465Z,11.22
2022-11-01T19:52:35.100Z,11.26
2022-11-01T19:55:02.301Z,11.27
2022-11-01T19:57:34.188Z,11.27
2022-11-01T20:00:21.555Z,11.24
2022-11-01T20:02:50.995Z,11.25
2022-11-01T20:05:28.664Z,11.25
2022-11-01T20:08:01.730Z,11.24
2022-11-01T20:10:28.476Z,11.29
2022-11-01T20:12:55.128Z,11.24
2022-11-01T20:15:21.661Z,11.18
2022-11-01T20:17:48.298Z,11.20
2022-11-01T20:20:14.996Z,11.26
2022-11-01T20:22:43.910Z,11.16
2022-11-01T20:25:10.599Z,11.25
2022-11-01T20:27:37.171Z,11.21
2022-11-01T20:30:04.058Z,11.09
2022-11-01T20:32:30.806Z,11.13
2022-11-01T20:34:57.902Z,11.19
2022-11-01T20:37:29.094Z,11.22
2022-11-01T20:39:56.127Z,11.18
2022-11-01T20:42:22.900Z,11.14
2022-11-01T20:44:50.122Z,11.18
2022-11-01T20:47:17.499Z,11.18
2022-11-01T20:49:44.226Z,11.20
2022-11-01T20:52:37.849Z,11.18
2022-11-01T20:54:57.611Z,11.17
2022-11-01T20:57:28.458Z,11.21
2022-11-01T20:59:55.791Z,11.20
2022-11-01T21:02:22.592Z,11.24
2022-11-01T21:04:56.082Z,11.21
2022-11-01T21:07:22.633Z,11.23
2022-11-01T21:09:51.762Z,11.17
2022-11-01T21:12:44.775Z,11.10
2022-11-01T21:15:35.135Z,11.15
2022-11-01T21:18:23.064Z,11.17
2022-11-01T21:20:49.636Z,11.18
2022-11-01T21:23:28.394Z,11.14
2022-11-01T21:25:59.292Z,11.12
2022-11-01T21:28:33.000Z,11.16
2022-11-01T21:31:20.185Z,11.16
2022-11-01T21:33:53.937Z,11.12
2022-11-01T21:36:21.629Z,11.15
2022-11-01T21:38:53.247Z,11.15
2022-11-01T21:41:31.989Z,11.24
2022-11-01T21:44:19.236Z,11.21
2022-11-01T21:46:57.632Z,11.22
2022-11-01T21:49:31.901Z,11.20
2022-11-01T21:52:01.441Z,11.15
2022-11-01T21:54:30.260Z,11.18
2022-11-01T21:56:57.294Z,11.13
2022-11-01T21:59:24.715Z,11.10
2022-11-01T22:01:51.530Z,11.07
2022-11-01T22:04:18.311Z,11.12
2022-11-01T22:06:45.811Z,11.15
2022-11-01T22:09:12.421Z,11.14
2022-11-01T22:11:39.026Z,11.06
2022-11-01T22:14:06.081Z,11.13
2022-11-01T22:16:32.776Z,11.06
2022-11-01T22:18:59.845Z,11.12
2022-11-01T22:21:26.861Z,11.10
2022-11-01T22:23:53.528Z,11.05
2022-11-01T22:26:20.131Z,10.98
2022-11-01T22:28:46.779Z,10.95
2022-11-01T22:31:13.405Z,10.94
2022-11-01T22:33:40.043Z,10.82
2022-11-01T22:36:22.165Z,10.83
2022-11-01T22:38:49.529Z,10.88
2022-11-01T22:41:29.878Z,10.87
2022-11-01T22:44:14.491Z,10.91
2022-11-01T22:46:44.260Z,10.80
2022-11-01T22:49:16.896Z,10.80
2022-11-01T22:51:46.143Z,10.70
2022-11-01T22:54:41.231Z,10.67
2022-11-01T22:57:25.879Z,10.64
2022-11-01T22:59:53.967Z,10.70
2022-11-01T23:02:31.662Z,10.68
2022-11-01T23:05:07.549Z,10.75
2022-11-01T23:07:43.864Z,10.79
2022-11-01T23:10:31.552Z,10.71
2022-11-01T23:13:28.970Z,10.72
2022-11-01T23:16:02.413Z,10.73
2022-11-01T23:18:31.935Z,10.75
2022-11-01T23:21:08.330Z,10.70
2022-11-01T23:23:37.140Z,10.70
2022-11-01T23:26:04.283Z,10.69
2022-11-01T23:28:35.234Z,10.72
2022-11-01T23:31:04.715Z,10.66
2022-11-01T23:33:40.118Z,10.71
2022-11-01T23:36:33.290Z,10.71
2022-11-01T23:39:04.967Z,10.75
2022-11-01T23:41:51.109Z,10.70
2022-11-01T23:44:31.308Z,10.67
2022-11-01T23:47:02.064Z,10.65
2022-11-01T23:49:31.166Z,10.69
2022-11-01T23:51:58.403Z,10.66
2022-11-01T23:54:27.985Z,10.61
2022-11-01T23:56:55.412Z,10.60
2022-11-01T23:59:22.075Z,10.58
